sensor_id;sensor_type;location;lat;lon;timestamp;temperature;humidity
3408;DHT22;1717;50.240;8.406;2023-09-12T00:00:44;23.10;90.40
3408;DHT22;1717;50.240;8.406;2023-09-12T00:03:11;23.10;90.10
3408;DHT22;1717;50.240;8.406;2023-09-12T00:05:38;23.00;90.20
3408;DHT22;1717;50.240;8.406;2023-09-12T00:08:07;23.00;90.20
3408;DHT22;1717;50.240;8.406;2023-09-12T00:10:34;23.00;90.30
3408;DHT22;1717;50.240;8.406;2023-09-12T00:13:00;23.00;90.30
3408;DHT22;1717;50.240;8.406;2023-09-12T00:15:28;23.00;90.30
3408;DHT22;1717;50.240;8.406;2023-09-12T00:17:55;23.00;90.30
3408;DHT22;1717;50.240;8.406;2023-09-12T00:20:21;23.00;90.20
3408;DHT22;1717;50.240;8.406;2023-09-12T00:22:48;23.00;90.10
3408;DHT22;1717;50.240;8.406;2023-09-12T00:25:16;23.00;90.10
3408;DHT22;1717;50.240;8.406;2023-09-12T00:27:43;23.00;90.10
3408;DHT22;1717;50.240;8.406;2023-09-12T00:30:11;23.00;90.00
3408;DHT22;1717;50.240;8.406;2023-09-12T00:32:38;23.00;90.00
3408;DHT22;1717;50.240;8.406;2023-09-12T00:35:05;23.00;89.80
3408;DHT22;1717;50.240;8.406;2023-09-12T00:37:32;23.00;89.70
3408;DHT22;1717;50.240;8.406;2023-09-12T00:39:59;23.00;89.80
3408;DHT22;1717;50.240;8.406;2023-09-12T00:42:27;23.10;89.80
3408;DHT22;1717;50.240;8.406;2023-09-12T00:44:54;23.10;89.70
3408;DHT22;1717;50.240;8.406;2023-09-12T00:47:22;23.10;89.60
3408;DHT22;1717;50.240;8.406;2023-09-12T00:49:50;23.10;89.50
3408;DHT22;1717;50.240;8.406;2023-09-12T00:52:18;23.10;89.40
3408;DHT22;1717;50.240;8.406;2023-09-12T00:54:47;23.10;89.20
3408;DHT22;1717;50.240;8.406;2023-09-12T00:57:14;23.10;89.20
3408;DHT22;1717;50.240;8.406;2023-09-12T00:59:42;23.10;89.30
3408;DHT22;1717;50.240;8.406;2023-09-12T01:02:09;23.10;89.30
3408;DHT22;1717;50.240;8.406;2023-09-12T01:04:37;23.10;89.50
3408;DHT22;1717;50.240;8.406;2023-09-12T01:07:04;23.00;89.50
3408;DHT22;1717;50.240;8.406;2023-09-12T01:09:31;23.00;89.50
3408;DHT22;1717;50.240;8.406;2023-09-12T01:11:59;22.90;89.70
3408;DHT22;1717;50.240;8.406;2023-09-12T01:14:28;22.90;89.90
3408;DHT22;1717;50.240;8.406;2023-09-12T01:16:57;22.90;89.70
3408;DHT22;1717;50.240;8.406;2023-09-12T01:19:25;22.90;89.70
3408;DHT22;1717;50.240;8.406;2023-09-12T01:25:20;22.80;89.90
3408;DHT22;1717;50.240;8.406;2023-09-12T01:27:52;22.80;89.90
3408;DHT22;1717;50.240;8.406;2023-09-12T01:30:22;22.80;90.00
3408;DHT22;1717;50.240;8.406;2023-09-12T01:32:49;22.80;90.00
3408;DHT22;1717;50.240;8.406;2023-09-12T01:35:17;22.80;90.00
3408;DHT22;1717;50.240;8.406;2023-09-12T01:37:45;22.80;90.00
3408;DHT22;1717;50.240;8.406;2023-09-12T01:40:12;22.70;90.00
3408;DHT22;1717;50.240;8.406;2023-09-12T01:42:43;22.70;90.00
3408;DHT22;1717;50.240;8.406;2023-09-12T01:45:15;22.70;90.00
3408;DHT22;1717;50.240;8.406;2023-09-12T01:47:43;22.70;90.00
3408;DHT22;1717;50.240;8.406;2023-09-12T01:50:12;22.70;90.00
3408;DHT22;1717;50.240;8.406;2023-09-12T01:52:40;22.70;89.70
3408;DHT22;1717;50.240;8.406;2023-09-12T01:55:08;22.70;89.70
3408;DHT22;1717;50.240;8.406;2023-09-12T01:57:36;22.70;89.80
3408;DHT22;1717;50.240;8.406;2023-09-12T02:00:04;22.70;89.70
3408;DHT22;1717;50.240;8.406;2023-09-12T02:02:32;22.70;89.80
3408;DHT22;1717;50.240;8.406;2023-09-12T02:05:06;22.60;90.00
3408;DHT22;1717;50.240;8.406;2023-09-12T02:07:37;22.60;90.10
3408;DHT22;1717;50.240;8.406;2023-09-12T02:10:05;22.50;90.10
3408;DHT22;1717;50.240;8.406;2023-09-12T02:12:32;22.50;90.20
3408;DHT22;1717;50.240;8.406;2023-09-12T02:14:59;22.50;90.30
3408;DHT22;1717;50.240;8.406;2023-09-12T02:17:26;22.50;90.40
3408;DHT22;1717;50.240;8.406;2023-09-12T02:19:54;22.50;90.30
3408;DHT22;1717;50.240;8.406;2023-09-12T02:22:21;22.50;90.30
3408;DHT22;1717;50.240;8.406;2023-09-12T02:24:48;22.50;90.30
3408;DHT22;1717;50.240;8.406;2023-09-12T02:27:15;22.50;90.30
3408;DHT22;1717;50.240;8.406;2023-09-12T02:29:42;22.50;90.40
3408;DHT22;1717;50.240;8.406;2023-09-12T02:32:09;22.40;90.40
3408;DHT22;1717;50.240;8.406;2023-09-12T02:34:36;22.50;90.50
3408;DHT22;1717;50.240;8.406;2023-09-12T02:37:04;22.50;90.50
3408;DHT22;1717;50.240;8.406;2023-09-12T02:39:31;22.50;90.60
3408;DHT22;1717;50.240;8.406;2023-09-12T02:41:58;22.40;90.60
3408;DHT22;1717;50.240;8.406;2023-09-12T02:44:25;22.40;90.70
3408;DHT22;1717;50.240;8.406;2023-09-12T02:46:52;22.40;90.70
3408;DHT22;1717;50.240;8.406;2023-09-12T02:49:19;22.40;90.70
3408;DHT22;1717;50.240;8.406;2023-09-12T02:51:46;22.40;90.80
3408;DHT22;1717;50.240;8.406;2023-09-12T02:54:14;22.40;90.80
3408;DHT22;1717;50.240;8.406;2023-09-12T02:56:41;22.40;90.80
3408;DHT22;1717;50.240;8.406;2023-09-12T02:59:07;22.40;90.80
3408;DHT22;1717;50.240;8.406;2023-09-12T03:01:34;22.40;91.10
3408;DHT22;1717;50.240;8.406;2023-09-12T03:04:01;22.40;90.70
3408;DHT22;1717;50.240;8.406;2023-09-12T03:06:28;22.40;90.70
3408;DHT22;1717;50.240;8.406;2023-09-12T03:08:55;22.40;90.80
3408;DHT22;1717;50.240;8.406;2023-09-12T03:11:25;22.50;90.80
3408;DHT22;1717;50.240;8.406;2023-09-12T03:13:53;22.40;90.80
3408;DHT22;1717;50.240;8.406;2023-09-12T03:16:20;22.40;90.70
3408;DHT22;1717;50.240;8.406;2023-09-12T03:18:48;22.40;90.60
3408;DHT22;1717;50.240;8.406;2023-09-12T03:21:15;22.40;90.70
3408;DHT22;1717;50.240;8.406;2023-09-12T03:23:42;22.40;90.70
3408;DHT22;1717;50.240;8.406;2023-09-12T03:26:09;22.40;90.80
3408;DHT22;1717;50.240;8.406;2023-09-12T03:28:37;22.40;90.80
3408;DHT22;1717;50.240;8.406;2023-09-12T03:31:05;22.40;90.80
3408;DHT22;1717;50.240;8.406;2023-09-12T03:33:32;22.40;90.80
3408;DHT22;1717;50.240;8.406;2023-09-12T03:35:59;22.40;90.80
3408;DHT22;1717;50.240;8.406;2023-09-12T03:38:26;22.40;90.90
3408;DHT22;1717;50.240;8.406;2023-09-12T03:40:52;22.40;90.80
3408;DHT22;1717;50.240;8.406;2023-09-12T03:43:19;22.40;90.70
3408;DHT22;1717;50.240;8.406;2023-09-12T03:45:47;22.40;90.80
3408;DHT22;1717;50.240;8.406;2023-09-12T03:48:15;22.40;90.90
3408;DHT22;1717;50.240;8.406;2023-09-12T03:50:41;22.40;90.80
3408;DHT22;1717;50.240;8.406;2023-09-12T03:53:08;22.40;90.80
3408;DHT22;1717;50.240;8.406;2023-09-12T03:55:35;22.50;90.70
3408;DHT22;1717;50.240;8.406;2023-09-12T03:58:03;22.50;90.70
3408;DHT22;1717;50.240;8.406;2023-09-12T04:00:30;22.50;90.70
3408;DHT22;1717;50.240;8.406;2023-09-12T04:02:58;22.50;90.70
3408;DHT22;1717;50.240;8.406;2023-09-12T04:05:25;22.50;90.70
3408;DHT22;1717;50.240;8.406;2023-09-12T04:07:52;22.50;90.80
3408;DHT22;1717;50.240;8.406;2023-09-12T04:10:20;22.50;91.20
3408;DHT22;1717;50.240;8.406;2023-09-12T04:12:47;22.50;90.70
3408;DHT22;1717;50.240;8.406;2023-09-12T04:15:14;22.50;90.70
3408;DHT22;1717;50.240;8.406;2023-09-12T04:17:41;22.50;90.70
3408;DHT22;1717;50.240;8.406;2023-09-12T04:20:10;22.40;90.60
3408;DHT22;1717;50.240;8.406;2023-09-12T04:22:39;22.50;90.60
3408;DHT22;1717;50.240;8.406;2023-09-12T04:25:06;22.50;90.60
3408;DHT22;1717;50.240;8.406;2023-09-12T04:27:33;22.50;90.60
3408;DHT22;1717;50.240;8.406;2023-09-12T04:30:00;22.40;90.50
3408;DHT22;1717;50.240;8.406;2023-09-12T04:32:28;22.50;90.60
3408;DHT22;1717;50.240;8.406;2023-09-12T04:34:55;22.50;90.60
3408;DHT22;1717;50.240;8.406;2023-09-12T04:37:23;22.50;90.50
3408;DHT22;1717;50.240;8.406;2023-09-12T04:39:50;22.50;90.30
3408;DHT22;1717;50.240;8.406;2023-09-12T04:42:17;22.50;90.60
3408;DHT22;1717;50.240;8.406;2023-09-12T04:44:44;22.50;90.80
3408;DHT22;1717;50.240;8.406;2023-09-12T04:47:11;22.50;91.10
3408;DHT22;1717;50.240;8.406;2023-09-12T04:49:38;22.60;91.20
3408;DHT22;1717;50.240;8.406;2023-09-12T04:52:05;22.60;91.00
3408;DHT22;1717;50.240;8.406;2023-09-12T04:54:33;22.60;91.20
3408;DHT22;1717;50.240;8.406;2023-09-12T04:57:00;22.60;91.30
3408;DHT22;1717;50.240;8.406;2023-09-12T04:59:27;22.70;91.40
3408;DHT22;1717;50.240;8.406;2023-09-12T05:01:54;22.70;91.40
3408;DHT22;1717;50.240;8.406;2023-09-12T05:04:21;22.70;91.40
3408;DHT22;1717;50.240;8.406;2023-09-12T05:06:47;22.70;91.50
3408;DHT22;1717;50.240;8.406;2023-09-12T05:09:14;22.70;91.60
3408;DHT22;1717;50.240;8.406;2023-09-12T05:11:42;22.70;91.50
3408;DHT22;1717;50.240;8.406;2023-09-12T05:14:09;22.70;91.60
3408;DHT22;1717;50.240;8.406;2023-09-12T05:16:36;22.70;91.40
3408;DHT22;1717;50.240;8.406;2023-09-12T05:19:03;22.70;91.30
3408;DHT22;1717;50.240;8.406;2023-09-12T05:21:30;22.70;91.30
3408;DHT22;1717;50.240;8.406;2023-09-12T05:23:57;22.70;91.20
3408;DHT22;1717;50.240;8.406;2023-09-12T05:26:24;22.80;91.20
3408;DHT22;1717;50.240;8.406;2023-09-12T05:28:52;22.70;91.20
3408;DHT22;1717;50.240;8.406;2023-09-12T05:31:19;22.70;91.20
3408;DHT22;1717;50.240;8.406;2023-09-12T05:33:46;22.70;91.20
3408;DHT22;1717;50.240;8.406;2023-09-12T05:36:12;22.80;91.30
3408;DHT22;1717;50.240;8.406;2023-09-12T05:38:38;22.80;91.20
3408;DHT22;1717;50.240;8.406;2023-09-12T05:41:05;22.80;91.10
3408;DHT22;1717;50.240;8.406;2023-09-12T05:43:32;22.80;91.20
3408;DHT22;1717;50.240;8.406;2023-09-12T05:46:00;22.80;91.30
3408;DHT22;1717;50.240;8.406;2023-09-12T05:48:28;22.80;91.30
3408;DHT22;1717;50.240;8.406;2023-09-12T05:50:55;22.80;91.50
3408;DHT22;1717;50.240;8.406;2023-09-12T05:53:22;22.80;91.50
3408;DHT22;1717;50.240;8.406;2023-09-12T05:55:49;22.80;91.60
3408;DHT22;1717;50.240;8.406;2023-09-12T05:58:16;22.70;91.50
3408;DHT22;1717;50.240;8.406;2023-09-12T06:00:42;22.80;91.60
3408;DHT22;1717;50.240;8.406;2023-09-12T06:03:15;22.80;91.60
3408;DHT22;1717;50.240;8.406;2023-09-12T06:19:33;22.70;92.10
3408;DHT22;1717;50.240;8.406;2023-09-12T06:22:00;22.80;92.20
3408;DHT22;1717;50.240;8.406;2023-09-12T06:24:27;22.80;92.00
3408;DHT22;1717;50.240;8.406;2023-09-12T06:26:54;22.80;92.00
3408;DHT22;1717;50.240;8.406;2023-09-12T06:29:22;22.80;92.40
3408;DHT22;1717;50.240;8.406;2023-09-12T06:31:49;22.90;92.20
3408;DHT22;1717;50.240;8.406;2023-09-12T06:34:16;22.90;92.10
3408;DHT22;1717;50.240;8.406;2023-09-12T06:36:44;22.90;92.80
3408;DHT22;1717;50.240;8.406;2023-09-12T06:39:12;22.90;92.70
3408;DHT22;1717;50.240;8.406;2023-09-12T06:41:38;23.00;92.60
3408;DHT22;1717;50.240;8.406;2023-09-12T06:44:05;23.00;92.50
3408;DHT22;1717;50.240;8.406;2023-09-12T06:46:33;23.00;92.40
3408;DHT22;1717;50.240;8.406;2023-09-12T06:49:01;23.10;92.30
3408;DHT22;1717;50.240;8.406;2023-09-12T06:51:29;23.10;92.30
3408;DHT22;1717;50.240;8.406;2023-09-12T06:53:57;23.10;92.20
3408;DHT22;1717;50.240;8.406;2023-09-12T06:56:25;23.10;92.10
3408;DHT22;1717;50.240;8.406;2023-09-12T06:58:52;23.10;92.30
3408;DHT22;1717;50.240;8.406;2023-09-12T07:01:21;23.10;92.40
3408;DHT22;1717;50.240;8.406;2023-09-12T07:03:48;23.10;92.40
3408;DHT22;1717;50.240;8.406;2023-09-12T07:06:19;23.20;92.50
3408;DHT22;1717;50.240;8.406;2023-09-12T07:08:46;23.10;92.60
3408;DHT22;1717;50.240;8.406;2023-09-12T07:11:14;23.20;92.70
3408;DHT22;1717;50.240;8.406;2023-09-12T07:13:41;23.20;92.80
3408;DHT22;1717;50.240;8.406;2023-09-12T07:16:08;23.30;92.90
3408;DHT22;1717;50.240;8.406;2023-09-12T07:18:35;23.30;92.90
3408;DHT22;1717;50.240;8.406;2023-09-12T07:21:04;23.30;92.80
3408;DHT22;1717;50.240;8.406;2023-09-12T07:23:31;23.40;92.80
3408;DHT22;1717;50.240;8.406;2023-09-12T07:25:59;23.40;92.80
3408;DHT22;1717;50.240;8.406;2023-09-12T07:28:27;23.40;92.70
3408;DHT22;1717;50.240;8.406;2023-09-12T07:30:54;23.50;92.70
3408;DHT22;1717;50.240;8.406;2023-09-12T07:33:21;23.50;92.70
3408;DHT22;1717;50.240;8.406;2023-09-12T07:35:49;23.60;92.70
3408;DHT22;1717;50.240;8.406;2023-09-12T07:38:18;23.60;92.70
3408;DHT22;1717;50.240;8.406;2023-09-12T07:40:45;23.70;92.60
3408;DHT22;1717;50.240;8.406;2023-09-12T07:43:12;23.70;92.60
3408;DHT22;1717;50.240;8.406;2023-09-12T07:45:40;23.70;92.50
3408;DHT22;1717;50.240;8.406;2023-09-12T07:48:09;23.80;92.40
3408;DHT22;1717;50.240;8.406;2023-09-12T07:50:37;23.90;92.70
3408;DHT22;1717;50.240;8.406;2023-09-12T07:53:04;23.90;92.30
3408;DHT22;1717;50.240;8.406;2023-09-12T07:55:31;24.00;92.20
3408;DHT22;1717;50.240;8.406;2023-09-12T07:58:01;24.00;92.10
3408;DHT22;1717;50.240;8.406;2023-09-12T08:00:28;24.10;92.10
3408;DHT22;1717;50.240;8.406;2023-09-12T08:02:57;24.20;92.00
3408;DHT22;1717;50.240;8.406;2023-09-12T08:05:24;24.20;91.90
3408;DHT22;1717;50.240;8.406;2023-09-12T08:07:51;24.30;91.90
3408;DHT22;1717;50.240;8.406;2023-09-12T08:10:17;24.30;91.80
3408;DHT22;1717;50.240;8.406;2023-09-12T08:12:44;24.40;91.80
3408;DHT22;1717;50.240;8.406;2023-09-12T08:15:11;24.40;91.70
3408;DHT22;1717;50.240;8.406;2023-09-12T08:17:38;24.50;91.60
3408;DHT22;1717;50.240;8.406;2023-09-12T08:20:08;24.60;91.50
3408;DHT22;1717;50.240;8.406;2023-09-12T08:22:35;24.60;91.40
3408;DHT22;1717;50.240;8.406;2023-09-12T08:25:03;24.70;91.40
3408;DHT22;1717;50.240;8.406;2023-09-12T08:27:30;24.80;91.30
3408;DHT22;1717;50.240;8.406;2023-09-12T08:29:57;24.80;91.30
3408;DHT22;1717;50.240;8.406;2023-09-12T08:32:23;24.90;91.30
3408;DHT22;1717;50.240;8.406;2023-09-12T08:34:50;24.90;91.10
3408;DHT22;1717;50.240;8.406;2023-09-12T08:37:18;25.00;91.10
3408;DHT22;1717;50.240;8.406;2023-09-12T08:39:45;25.00;91.50
3408;DHT22;1717;50.240;8.406;2023-09-12T08:42:14;25.10;91.10
3408;DHT22;1717;50.240;8.406;2023-09-12T08:44:42;25.10;90.90
3408;DHT22;1717;50.240;8.406;2023-09-12T08:47:09;25.10;90.80
3408;DHT22;1717;50.240;8.406;2023-09-12T08:49:37;25.20;90.70
3408;DHT22;1717;50.240;8.406;2023-09-12T08:52:05;25.20;90.50
3408;DHT22;1717;50.240;8.406;2023-09-12T08:54:33;25.30;90.10
3408;DHT22;1717;50.240;8.406;2023-09-12T08:57:01;25.30;90.00
3408;DHT22;1717;50.240;8.406;2023-09-12T08:59:30;25.40;89.60
3408;DHT22;1717;50.240;8.406;2023-09-12T09:01:58;25.40;89.10
3408;DHT22;1717;50.240;8.406;2023-09-12T09:04:28;25.40;88.70
3408;DHT22;1717;50.240;8.406;2023-09-12T09:06:57;25.50;88.50
3408;DHT22;1717;50.240;8.406;2023-09-12T09:09:26;25.50;88.20
3408;DHT22;1717;50.240;8.406;2023-09-12T09:11:55;25.60;88.00
3408;DHT22;1717;50.240;8.406;2023-09-12T09:14:21;25.60;87.70
3408;DHT22;1717;50.240;8.406;2023-09-12T09:16:49;25.60;87.30
3408;DHT22;1717;50.240;8.406;2023-09-12T09:19:16;25.70;87.00
3408;DHT22;1717;50.240;8.406;2023-09-12T09:21:44;25.70;86.70
3408;DHT22;1717;50.240;8.406;2023-09-12T09:24:13;25.70;86.40
3408;DHT22;1717;50.240;8.406;2023-09-12T09:26:45;25.80;86.30
3408;DHT22;1717;50.240;8.406;2023-09-12T09:29:15;25.80;86.10
3408;DHT22;1717;50.240;8.406;2023-09-12T09:31:44;25.80;85.90
3408;DHT22;1717;50.240;8.406;2023-09-12T09:34:12;25.90;85.90
3408;DHT22;1717;50.240;8.406;2023-09-12T09:36:43;25.90;85.80
3408;DHT22;1717;50.240;8.406;2023-09-12T09:39:10;25.90;85.80
3408;DHT22;1717;50.240;8.406;2023-09-12T09:41:37;25.90;85.70
3408;DHT22;1717;50.240;8.406;2023-09-12T09:44:05;25.90;85.70
3408;DHT22;1717;50.240;8.406;2023-09-12T09:46:34;25.90;85.60
3408;DHT22;1717;50.240;8.406;2023-09-12T09:49:01;26.00;85.50
3408;DHT22;1717;50.240;8.406;2023-09-12T09:51:30;26.00;85.50
3408;DHT22;1717;50.240;8.406;2023-09-12T09:53:57;26.00;85.20
3408;DHT22;1717;50.240;8.406;2023-09-12T09:56:26;26.00;85.50
3408;DHT22;1717;50.240;8.406;2023-09-12T09:58:54;26.00;85.10
3408;DHT22;1717;50.240;8.406;2023-09-12T10:01:22;26.00;85.00
3408;DHT22;1717;50.240;8.406;2023-09-12T10:03:51;26.00;84.90
3408;DHT22;1717;50.240;8.406;2023-09-12T10:06:19;26.10;84.80
3408;DHT22;1717;50.240;8.406;2023-09-12T10:08:50;26.10;84.80
3408;DHT22;1717;50.240;8.406;2023-09-12T10:11:19;26.10;84.80
3408;DHT22;1717;50.240;8.406;2023-09-12T10:13:52;26.10;84.70
3408;DHT22;1717;50.240;8.406;2023-09-12T10:16:22;26.10;84.60
3408;DHT22;1717;50.240;8.406;2023-09-12T10:18:56;26.10;84.60
3408;DHT22;1717;50.240;8.406;2023-09-12T10:21:28;26.10;84.40
3408;DHT22;1717;50.240;8.406;2023-09-12T10:23:58;26.10;84.40
3408;DHT22;1717;50.240;8.406;2023-09-12T10:26:25;26.10;84.20
3408;DHT22;1717;50.240;8.406;2023-09-12T10:28:53;26.10;84.00
3408;DHT22;1717;50.240;8.406;2023-09-12T10:31:21;26.10;83.80
3408;DHT22;1717;50.240;8.406;2023-09-12T10:33:51;26.10;83.90
3408;DHT22;1717;50.240;8.406;2023-09-12T10:36:19;26.10;84.00
3408;DHT22;1717;50.240;8.406;2023-09-12T10:38:48;26.10;83.90
3408;DHT22;1717;50.240;8.406;2023-09-12T10:41:16;26.20;83.90
3408;DHT22;1717;50.240;8.406;2023-09-12T10:43:44;26.20;83.80
3408;DHT22;1717;50.240;8.406;2023-09-12T10:46:15;26.20;83.80
3408;DHT22;1717;50.240;8.406;2023-09-12T10:48:42;26.20;84.00
3408;DHT22;1717;50.240;8.406;2023-09-12T10:51:11;26.20;84.20
3408;DHT22;1717;50.240;8.406;2023-09-12T10:53:39;26.20;84.20
3408;DHT22;1717;50.240;8.406;2023-09-12T10:56:17;26.20;84.20
3408;DHT22;1717;50.240;8.406;2023-09-12T10:59:08;26.20;84.10
3408;DHT22;1717;50.240;8.406;2023-09-12T11:01:37;26.30;84.30
3408;DHT22;1717;50.240;8.406;2023-09-12T11:04:33;26.30;84.20
3408;DHT22;1717;50.240;8.406;2023-09-12T11:07:31;26.30;84.20
3408;DHT22;1717;50.240;8.406;2023-09-12T11:10:18;26.30;84.20
3408;DHT22;1717;50.240;8.406;2023-09-12T11:12:47;26.40;84.50
3408;DHT22;1717;50.240;8.406;2023-09-12T11:15:14;26.30;84.40
3408;DHT22;1717;50.240;8.406;2023-09-12T11:17:42;26.40;84.40
3408;DHT22;1717;50.240;8.406;2023-09-12T11:20:09;26.40;84.40
3408;DHT22;1717;50.240;8.406;2023-09-12T11:22:39;26.40;84.30
3408;DHT22;1717;50.240;8.406;2023-09-12T11:25:16;26.40;84.40
3408;DHT22;1717;50.240;8.406;2023-09-12T11:28:02;26.50;84.40
3408;DHT22;1717;50.240;8.406;2023-09-12T11:30:31;26.50;84.30
3408;DHT22;1717;50.240;8.406;2023-09-12T11:32:58;26.50;84.20
3408;DHT22;1717;50.240;8.406;2023-09-12T11:35:27;26.60;84.20
3408;DHT22;1717;50.240;8.406;2023-09-12T11:37:57;26.60;84.10
3408;DHT22;1717;50.240;8.406;2023-09-12T11:40:25;26.70;84.20
3408;DHT22;1717;50.240;8.406;2023-09-12T11:42:52;26.70;84.00
3408;DHT22;1717;50.240;8.406;2023-09-12T11:45:21;26.80;84.00
3408;DHT22;1717;50.240;8.406;2023-09-12T11:47:49;26.80;83.80
3408;DHT22;1717;50.240;8.406;2023-09-12T11:50:29;26.90;83.90
3408;DHT22;1717;50.240;8.406;2023-09-12T11:53:05;27.00;83.80
3408;DHT22;1717;50.240;8.406;2023-09-12T11:55:33;27.10;83.70
3408;DHT22;1717;50.240;8.406;2023-09-12T11:58:03;27.10;83.40
3408;DHT22;1717;50.240;8.406;2023-09-12T12:00:30;27.20;83.20
3408;DHT22;1717;50.240;8.406;2023-09-12T12:02:57;27.20;83.00
3408;DHT22;1717;50.240;8.406;2023-09-12T12:05:24;27.30;82.80
3408;DHT22;1717;50.240;8.406;2023-09-12T12:07:51;27.40;82.60
3408;DHT22;1717;50.240;8.406;2023-09-12T12:10:20;27.50;82.30
3408;DHT22;1717;50.240;8.406;2023-09-12T12:12:47;27.50;82.20
3408;DHT22;1717;50.240;8.406;2023-09-12T12:15:19;27.60;82.00
3408;DHT22;1717;50.240;8.406;2023-09-12T12:17:46;27.60;81.80
3408;DHT22;1717;50.240;8.406;2023-09-12T12:20:13;27.60;81.80
3408;DHT22;1717;50.240;8.406;2023-09-12T12:22:40;27.70;81.70
3408;DHT22;1717;50.240;8.406;2023-09-12T12:25:08;27.70;81.70
3408;DHT22;1717;50.240;8.406;2023-09-12T12:27:37;27.80;82.10
3408;DHT22;1717;50.240;8.406;2023-09-12T12:30:06;27.80;82.00
3408;DHT22;1717;50.240;8.406;2023-09-12T12:32:34;27.90;82.40
3408;DHT22;1717;50.240;8.406;2023-09-12T12:35:01;28.00;82.40
3408;DHT22;1717;50.240;8.406;2023-09-12T12:37:29;28.00;82.50
3408;DHT22;1717;50.240;8.406;2023-09-12T12:40:00;28.10;82.80
3408;DHT22;1717;50.240;8.406;2023-09-12T12:42:33;28.10;82.90
3408;DHT22;1717;50.240;8.406;2023-09-12T12:45:02;28.20;83.00
3408;DHT22;1717;50.240;8.406;2023-09-12T12:47:29;28.20;83.00
3408;DHT22;1717;50.240;8.406;2023-09-12T12:49:57;28.30;82.70
3408;DHT22;1717;50.240;8.406;2023-09-12T12:52:24;28.30;83.10
3408;DHT22;1717;50.240;8.406;2023-09-12T12:54:51;28.30;82.90
3408;DHT22;1717;50.240;8.406;2023-09-12T12:57:20;28.40;82.80
3408;DHT22;1717;50.240;8.406;2023-09-12T12:59:47;28.40;82.90
3408;DHT22;1717;50.240;8.406;2023-09-12T13:02:16;28.50;83.10
3408;DHT22;1717;50.240;8.406;2023-09-12T13:04:44;28.50;83.10
3408;DHT22;1717;50.240;8.406;2023-09-12T13:07:11;28.50;83.40
3408;DHT22;1717;50.240;8.406;2023-09-12T13:09:38;28.50;83.60
3408;DHT22;1717;50.240;8.406;2023-09-12T13:12:06;28.50;83.40
3408;DHT22;1717;50.240;8.406;2023-09-12T13:14:34;28.50;83.30
3408;DHT22;1717;50.240;8.406;2023-09-12T13:17:01;28.60;83.30
3408;DHT22;1717;50.240;8.406;2023-09-12T13:19:29;28.50;83.10
3408;DHT22;1717;50.240;8.406;2023-09-12T13:21:57;28.60;82.80
3408;DHT22;1717;50.240;8.406;2023-09-12T13:24:23;28.60;82.80
3408;DHT22;1717;50.240;8.406;2023-09-12T13:26:51;28.60;82.80
3408;DHT22;1717;50.240;8.406;2023-09-12T13:29:19;28.70;82.90
3408;DHT22;1717;50.240;8.406;2023-09-12T13:31:46;28.70;82.80
3408;DHT22;1717;50.240;8.406;2023-09-12T13:34:12;28.80;82.70
3408;DHT22;1717;50.240;8.406;2023-09-12T13:36:41;28.80;82.60
3408;DHT22;1717;50.240;8.406;2023-09-12T13:39:07;28.80;82.30
3408;DHT22;1717;50.240;8.406;2023-09-12T13:41:34;28.90;82.40
3408;DHT22;1717;50.240;8.406;2023-09-12T13:44:01;29.00;82.40
3408;DHT22;1717;50.240;8.406;2023-09-12T13:46:28;29.00;82.30
3408;DHT22;1717;50.240;8.406;2023-09-12T13:48:55;29.00;82.10
3408;DHT22;1717;50.240;8.406;2023-09-12T13:51:26;29.00;82.20
3408;DHT22;1717;50.240;8.406;2023-09-12T13:53:54;29.00;82.10
3408;DHT22;1717;50.240;8.406;2023-09-12T13:56:21;28.90;82.10
3408;DHT22;1717;50.240;8.406;2023-09-12T13:58:47;28.90;82.20
3408;DHT22;1717;50.240;8.406;2023-09-12T14:03:42;28.90;82.30
3408;DHT22;1717;50.240;8.406;2023-09-12T14:06:09;28.90;82.40
3408;DHT22;1717;50.240;8.406;2023-09-12T14:08:35;28.80;82.50
3408;DHT22;1717;50.240;8.406;2023-09-12T14:11:04;28.80;82.80
3408;DHT22;1717;50.240;8.406;2023-09-12T14:13:30;28.80;82.80
3408;DHT22;1717;50.240;8.406;2023-09-12T14:15:57;28.80;82.90
3408;DHT22;1717;50.240;8.406;2023-09-12T14:18:24;28.80;83.00
3408;DHT22;1717;50.240;8.406;2023-09-12T14:20:51;28.80;83.20
3408;DHT22;1717;50.240;8.406;2023-09-12T14:23:18;28.80;83.20
3408;DHT22;1717;50.240;8.406;2023-09-12T14:25:46;28.80;83.20
3408;DHT22;1717;50.240;8.406;2023-09-12T14:28:14;28.80;83.30
3408;DHT22;1717;50.240;8.406;2023-09-12T14:30:41;28.80;83.30
3408;DHT22;1717;50.240;8.406;2023-09-12T14:33:10;28.80;83.20
3408;DHT22;1717;50.240;8.406;2023-09-12T14:35:39;28.80;83.30
3408;DHT22;1717;50.240;8.406;2023-09-12T14:38:06;28.80;83.30
3408;DHT22;1717;50.240;8.406;2023-09-12T14:40:33;28.80;83.50
3408;DHT22;1717;50.240;8.406;2023-09-12T14:43:00;28.80;83.50
3408;DHT22;1717;50.240;8.406;2023-09-12T14:45:28;28.80;83.50
3408;DHT22;1717;50.240;8.406;2023-09-12T14:47:56;28.70;83.20
3408;DHT22;1717;50.240;8.406;2023-09-12T14:50:23;28.80;83.60
3408;DHT22;1717;50.240;8.406;2023-09-12T14:52:51;28.80;83.70
3408;DHT22;1717;50.240;8.406;2023-09-12T14:55:18;28.80;83.60
3408;DHT22;1717;50.240;8.406;2023-09-12T14:57:45;28.80;83.70
3408;DHT22;1717;50.240;8.406;2023-09-12T15:00:12;28.80;83.50
3408;DHT22;1717;50.240;8.406;2023-09-12T15:02:40;28.90;83.60
3408;DHT22;1717;50.240;8.406;2023-09-12T15:05:08;28.90;83.70
3408;DHT22;1717;50.240;8.406;2023-09-12T15:07:35;28.90;83.40
3408;DHT22;1717;50.240;8.406;2023-09-12T15:10:03;29.00;83.30
3408;DHT22;1717;50.240;8.406;2023-09-12T15:12:30;29.00;83.20
3408;DHT22;1717;50.240;8.406;2023-09-12T15:14:57;29.00;83.00
3408;DHT22;1717;50.240;8.406;2023-09-12T15:17:24;29.10;83.20
3408;DHT22;1717;50.240;8.406;2023-09-12T15:19:52;29.10;82.90
3408;DHT22;1717;50.240;8.406;2023-09-12T15:22:19;29.10;82.80
3408;DHT22;1717;50.240;8.406;2023-09-12T15:24:46;29.10;82.80
3408;DHT22;1717;50.240;8.406;2023-09-12T15:27:12;29.10;82.80
3408;DHT22;1717;50.240;8.406;2023-09-12T15:29:40;29.20;82.70
3408;DHT22;1717;50.240;8.406;2023-09-12T15:32:06;29.20;82.30
3408;DHT22;1717;50.240;8.406;2023-09-12T15:34:34;29.20;82.30
3408;DHT22;1717;50.240;8.406;2023-09-12T15:37:09;29.30;82.50
3408;DHT22;1717;50.240;8.406;2023-09-12T15:39:36;29.20;82.30
3408;DHT22;1717;50.240;8.406;2023-09-12T15:42:04;29.20;82.30
3408;DHT22;1717;50.240;8.406;2023-09-12T15:44:31;29.20;82.20
3408;DHT22;1717;50.240;8.406;2023-09-12T15:46:58;29.20;82.10
3408;DHT22;1717;50.240;8.406;2023-09-12T15:49:25;29.20;81.90
3408;DHT22;1717;50.240;8.406;2023-09-12T15:51:52;29.20;82.10
3408;DHT22;1717;50.240;8.406;2023-09-12T15:54:20;29.20;82.00
3408;DHT22;1717;50.240;8.406;2023-09-12T15:56:47;29.20;81.90
3408;DHT22;1717;50.240;8.406;2023-09-12T15:59:14;29.20;81.80
3408;DHT22;1717;50.240;8.406;2023-09-12T16:01:40;29.20;81.80
3408;DHT22;1717;50.240;8.406;2023-09-12T16:04:07;29.20;82.00
3408;DHT22;1717;50.240;8.406;2023-09-12T16:06:34;29.20;83.00
3408;DHT22;1717;50.240;8.406;2023-09-12T16:09:01;29.20;82.50
3408;DHT22;1717;50.240;8.406;2023-09-12T16:11:30;29.20;82.90
3408;DHT22;1717;50.240;8.406;2023-09-12T16:13:57;29.20;83.10
3408;DHT22;1717;50.240;8.406;2023-09-12T16:16:24;29.20;83.10
3408;DHT22;1717;50.240;8.406;2023-09-12T16:18:50;29.10;83.70
3408;DHT22;1717;50.240;8.406;2023-09-12T16:21:17;29.10;83.70
3408;DHT22;1717;50.240;8.406;2023-09-12T16:23:44;29.10;84.00
3408;DHT22;1717;50.240;8.406;2023-09-12T16:26:11;29.00;84.20